createdAt,value
2022-09-07T00:02:04.753Z,26.77
2022-09-07T00:04:31.786Z,27.52
2022-09-07T00:06:59.679Z,26.67
2022-09-07T00:09:26.428Z,29.83
2022-09-07T00:11:53.168Z,24.02
2022-09-07T00:14:21.202Z,27.15
2022-09-07T00:16:47.922Z,29.05
2022-09-07T00:19:14.678Z,27.73
2022-09-07T00:21:41.395Z,26.33
2022-09-07T00:24:08.189Z,21.92
2022-09-07T00:26:35.353Z,22.70
2022-09-07T00:29:03.571Z,26.15
2022-09-07T00:31:31.089Z,21.42
2022-09-07T00:34:00.089Z,23.73
2022-09-07T00:36:27.098Z,22.70
2022-09-07T00:38:54.037Z,20.98
2022-09-07T00:41:21.436Z,20.00
2022-09-07T00:43:49.613Z,21.20
2022-09-07T00:46:18.678Z,17.40
2022-09-07T00:48:52.136Z,24.17
2022-09-07T00:51:27.845Z,16.10
2022-09-07T00:53:58.921Z,19.58
2022-09-07T00:56:29.993Z,16.25
2022-09-07T00:58:56.798Z,16.30
2022-09-07T01:01:25.148Z,12.88
2022-09-07T01:03:54.773Z,15.52
2022-09-07T01:06:25.526Z,11.68
2022-09-07T01:08:52.277Z,14.98
2022-09-07T01:11:21.226Z,13.82
2022-09-07T01:13:49.804Z,12.30
2022-09-07T01:16:44.671Z,10.47
2022-09-07T01:19:30.669Z,9.32
2022-09-07T01:22:26.942Z,9.27
2022-09-07T01:25:13.475Z,11.18
2022-09-07T01:28:13.829Z,9.25
2022-09-07T01:30:44.551Z,9.45
2022-09-07T01:33:42.650Z,9.35
2022-09-07T01:36:26.234Z,10.27
2022-09-07T01:39:00.481Z,12.75
2022-09-07T01:41:46.743Z,8.68
2022-09-07T01:44:37.167Z,9.45
2022-09-07T01:47:23.208Z,10.68
2022-09-07T01:50:19.043Z,9.90
2022-09-07T01:52:54.438Z,8.35
2022-09-07T01:55:26.974Z,10.73
2022-09-07T01:58:01.317Z,10.07
2022-09-07T02:00:28.253Z,10.40
2022-09-07T02:02:59.353Z,9.27
2022-09-07T02:05:43.394Z,10.45
2022-09-07T02:08:17.312Z,10.32
2022-09-07T02:10:56.616Z,10.02
2022-09-07T02:13:28.929Z,10.85
2022-09-07T02:16:12.360Z,9.98
2022-09-07T02:18:44.016Z,13.57
2022-09-07T02:21:14.420Z,14.40
2022-09-07T02:23:46.667Z,13.18
2022-09-07T02:26:16.632Z,12.30
2022-09-07T02:28:43.756Z,13.68
2022-09-07T02:31:10.600Z,11.00
2022-09-07T02:33:37.616Z,11.05
2022-09-07T02:36:05.439Z,11.25
2022-09-07T02:38:33.002Z,8.48
2022-09-07T02:41:01.162Z,11.32
2022-09-07T02:43:28.719Z,10.57
2022-09-07T02:46:16.859Z,10.73
2022-09-07T02:49:16.368Z,8.05
2022-09-07T02:52:12.670Z,9.38
2022-09-07T02:54:57.908Z,9.85
2022-09-07T02:57:32.128Z,9.90
2022-09-07T03:00:11.599Z,6.78
2022-09-07T03:03:00.553Z,7.78
2022-09-07T03:05:33.682Z,10.57
2022-09-07T03:08:07.712Z,7.68
2022-09-07T03:10:38.488Z,8.75
2022-09-07T03:13:05.241Z,8.70
2022-09-07T03:15:32.014Z,10.25
2022-09-07T03:17:58.840Z,7.43
2022-09-07T03:20:25.628Z,8.73
2022-09-07T03:22:53.061Z,10.48
2022-09-07T03:25:20.195Z,15.75
2022-09-07T03:27:47.063Z,9.15
2022-09-07T03:30:14.280Z,12.50
2022-09-07T03:32:42.000Z,11.35
2022-09-07T03:35:09.425Z,10.80
2022-09-07T03:37:37.192Z,13.05
2022-09-07T03:40:06.374Z,13.80
2022-09-07T03:42:33.245Z,10.52
2022-09-07T03:45:00.027Z,8.52
2022-09-07T03:47:26.820Z,8.18
2022-09-07T03:49:53.540Z,7.18
2022-09-07T03:52:20.262Z,11.27
2022-09-07T03:54:47.016Z,13.20
2022-09-07T03:57:13.780Z,13.60
2022-09-07T03:59:40.498Z,12.80
2022-09-07T04:02:07.339Z,11.32
2022-09-07T04:04:34.122Z,11.98
2022-09-07T04:07:00.926Z,15.65
2022-09-07T04:09:27.696Z,14.55
2022-09-07T04:11:54.443Z,11.57
2022-09-07T04:14:21.280Z,14.88
2022-09-07T04:16:48.588Z,10.15
2022-09-07T04:19:15.340Z,11.75
2022-09-07T04:21:44.259Z,11.20
2022-09-07T04:24:11.013Z,12.73
2022-09-07T04:26:37.952Z,12.85
2022-09-07T04:29:05.299Z,11.45
2022-09-07T04:31:33.656Z,9.48
2022-09-07T04:34:00.392Z,10.20
2022-09-07T04:36:27.320Z,13.43
2022-09-07T04:39:02.627Z,13.50
2022-09-07T04:41:31.077Z,15.57
2022-09-07T04:44:00.150Z,12.53
2022-09-07T04:46:33.758Z,11.25
2022-09-07T04:49:05.655Z,10.88
2022-09-07T04:51:33.550Z,20.05
2022-09-07T04:54:02.059Z,17.85
2022-09-07T04:56:29.285Z,11.27
2022-09-07T04:58:56.972Z,12.50
2022-09-07T05:01:24.941Z,16.40
2022-09-07T05:03:52.158Z,18.90
2022-09-07T05:06:20.163Z,18.67
2022-09-07T05:08:50.448Z,18.80
2022-09-07T05:11:18.327Z,18.65
2022-09-07T05:13:45.367Z,15.32
2022-09-07T05:16:18.084Z,17.77
2022-09-07T05:18:49.194Z,14.15
2022-09-07T05:21:18.344Z,20.88
2022-09-07T05:23:45.417Z,15.07
2022-09-07T05:26:12.331Z,21.25
2022-09-07T05:28:39.237Z,19.50
2022-09-07T05:31:18.076Z,16.40
2022-09-07T05:36:46.576Z,14.88
2022-09-07T05:39:13.422Z,20.75
2022-09-07T05:41:55.353Z,16.50
2022-09-07T05:44:45.007Z,14.70
2022-09-07T05:47:12.730Z,15.35
2022-09-07T05:49:39.676Z,17.35
2022-09-07T05:52:06.926Z,19.80
2022-09-07T05:54:33.738Z,15.43
2022-09-07T05:57:00.607Z,18.10
2022-09-07T05:59:48.282Z,19.85
2022-09-07T06:02:17.183Z,18.83
2022-09-07T06:04:44.208Z,19.30
2022-09-07T06:07:28.526Z,23.27
2022-09-07T06:12:49.020Z,20.77
2022-09-07T06:15:16.476Z,20.50
2022-09-07T06:17:43.263Z,19.20
2022-09-07T06:20:10.357Z,20.05
2022-09-07T06:22:37.721Z,23.73
2022-09-07T06:25:05.371Z,25.02
2022-09-07T06:27:32.454Z,19.75
2022-09-07T06:29:59.176Z,19.33
2022-09-07T06:35:09.503Z,26.13
2022-09-07T06:37:38.675Z,32.78
2022-09-07T06:40:06.238Z,18.27
2022-09-07T06:42:33.278Z,17.52
2022-09-07T06:45:00.243Z,24.00
2022-09-07T06:47:28.630Z,20.73
2022-09-07T06:49:55.391Z,20.03
2022-09-07T06:52:22.563Z,27.15
2022-09-07T06:55:04.676Z,20.85
2022-09-07T06:57:31.575Z,19.85
2022-09-07T06:59:58.481Z,22.88
2022-09-07T07:02:25.207Z,22.02
2022-09-07T07:04:52.074Z,20.45
2022-09-07T07:07:18.816Z,22.58
2022-09-07T07:09:45.680Z,24.45
2022-09-07T07:12:12.403Z,26.45
2022-09-07T07:14:43.988Z,26.10
2022-09-07T07:17:11.587Z,26.38
2022-09-07T07:19:38.397Z,25.20
2022-09-07T07:22:23.885Z,29.45
2022-09-07T07:24:52.334Z,26.35
2022-09-07T07:27:19.110Z,28.50
2022-09-07T07:29:46.051Z,24.33
2022-09-07T07:32:12.938Z,25.90
2022-09-07T07:34:39.708Z,30.77
2022-09-07T07:37:06.519Z,32.05
2022-09-07T07:42:21.286Z,25.52
2022-09-07T07:44:48.727Z,26.75
2022-09-07T07:47:15.562Z,32.85
2022-09-07T07:49:42.395Z,25.27
2022-09-07T07:57:24.821Z,26.48
2022-09-07T07:59:51.754Z,29.08
2022-09-07T08:02:18.498Z,27.80
2022-09-07T08:04:45.225Z,30.92
2022-09-07T08:07:12.094Z,31.85
2022-09-07T08:09:40.526Z,29.20
2022-09-07T08:12:08.054Z,34.43
2022-09-07T08:14:40.472Z,29.02
2022-09-07T08:17:07.932Z,32.97
2022-09-07T08:19:34.619Z,30.52
2022-09-07T08:22:01.358Z,27.55
2022-09-07T08:24:28.099Z,30.50
2022-09-07T08:26:54.821Z,30.60
2022-09-07T08:29:21.558Z,30.38
2022-09-07T08:31:48.413Z,32.22
2022-09-07T08:34:15.125Z,35.08
2022-09-07T08:36:41.833Z,34.53
2022-09-07T08:39:08.518Z,32.60
2022-09-07T08:41:44.422Z,33.08
2022-09-07T08:44:29.644Z,35.30
2022-09-07T08:46:58.534Z,34.08
2022-09-07T08:49:47.357Z,34.92
2022-09-07T08:52:16.017Z,32.92
2022-09-07T08:54:45.169Z,38.50
2022-09-07T08:57:28.284Z,34.47
2022-09-07T09:00:10.237Z,37.20
2022-09-07T09:02:43.495Z,36.95
2022-09-07T09:05:33.103Z,29.23
2022-09-07T09:08:05.346Z,30.00
2022-09-07T09:10:47.932Z,27.13
2022-09-07T09:13:14.622Z,26.75
2022-09-07T09:15:53.670Z,28.38
2022-09-07T09:20:57.500Z,29.50
2022-09-07T09:23:26.877Z,30.50
2022-09-07T09:25:55.811Z,31.17
2022-09-07T09:28:24.697Z,23.67
2022-09-07T09:30:53.315Z,20.80
2022-09-07T09:33:27.503Z,24.50
2022-09-07T09:35:56.585Z,21.92
2022-09-07T09:40:58.447Z,22.75
2022-09-07T09:43:28.064Z,18.52
2022-09-07T09:46:13.019Z,19.42
2022-09-07T09:48:41.509Z,15.85
2022-09-07T09:54:15.125Z,18.25
2022-09-07T09:56:44.304Z,16.88
2022-09-07T10:05:33.872Z,16.10
2022-09-07T10:08:00.657Z,14.77
2022-09-07T10:10:28.658Z,14.35
2022-09-07T10:12:55.910Z,17.20
2022-09-07T10:15:40.592Z,16.05
2022-09-07T10:18:18.814Z,15.13
2022-09-07T10:20:45.713Z,13.38
2022-09-07T10:23:22.131Z,13.52
2022-09-07T10:25:49.085Z,15.75
2022-09-07T10:28:21.381Z,17.15
2022-09-07T10:30:54.176Z,12.32
2022-09-07T10:33:27.553Z,12.52
2022-09-07T10:36:02.778Z,9.95
2022-09-07T10:38:31.698Z,12.73
2022-09-07T10:41:09.728Z,15.45
2022-09-07T10:43:45.835Z,15.45
2022-09-07T10:47:00.132Z,11.23
2022-09-07T10:53:39.511Z,15.23
2022-09-07T10:56:38.786Z,14.05
2022-09-07T10:59:18.479Z,12.93
2022-09-07T11:02:12.549Z,15.52
2022-09-07T11:05:02.929Z,15.95
2022-09-07T11:07:48.397Z,12.00
2022-09-07T11:10:43.092Z,15.25
2022-09-07T11:13:13.838Z,12.02
2022-09-07T11:15:45.838Z,11.25
2022-09-07T11:18:23.837Z,13.13
2022-09-07T11:20:55.755Z,12.68
2022-09-07T11:23:44.995Z,14.60
2022-09-07T11:26:25.597Z,12.27
2022-09-07T11:31:52.239Z,10.05
2022-09-07T11:34:29.116Z,10.70
2022-09-07T11:37:01.088Z,9.43
2022-09-07T11:39:35.459Z,11.15
2022-09-07T11:45:25.234Z,7.97
2022-09-07T11:48:00.020Z,9.25
2022-09-07T11:50:29.996Z,9.50
2022-09-07T11:53:32.916Z,10.10
2022-09-07T11:56:04.694Z,10.73
2022-09-07T11:59:08.638Z,7.60
2022-09-07T12:01:57.310Z,7.20
2022-09-07T12:04:33.510Z,9.57
2022-09-07T12:07:19.702Z,5.63
2022-09-07T12:09:52.889Z,12.82
2022-09-07T12:12:48.471Z,9.20
2022-09-07T12:15:33.829Z,11.82
2022-09-07T12:18:12.196Z,10.13
2022-09-07T12:20:47.426Z,8.45
2022-09-07T12:23:17.133Z,8.80
2022-09-07T12:25:46.006Z,10.38
2022-09-07T12:28:23.958Z,8.45
2022-09-07T12:31:05.818Z,8.85
2022-09-07T12:33:32.490Z,13.93
2022-09-07T12:36:00.876Z,9.13
2022-09-07T12:38:30.688Z,9.95
2022-09-07T12:41:18.302Z,13.65
2022-09-07T12:43:48.775Z,11.20
2022-09-07T12:46:34.886Z,8.68
2022-09-07T12:49:29.070Z,10.25
2022-09-07T12:52:14.875Z,8.95
2022-09-07T12:55:28.547Z,6.60
2022-09-07T12:58:14.299Z,8.15
2022-09-07T13:00:50.031Z,9.85
2022-09-07T13:03:51.770Z,9.15
2022-09-07T13:07:03.115Z,7.10
2022-09-07T13:09:41.040Z,6.60
2022-09-07T13:15:41.518Z,5.97
2022-09-07T13:18:27.223Z,6.30
2022-09-07T13:21:08.979Z,8.77
2022-09-07T13:23:40.142Z,6.00
2022-09-07T13:26:09.393Z,6.70
2022-09-07T13:28:51.264Z,7.85
2022-09-07T13:31:42.200Z,8.13
2022-09-07T13:34:33.971Z,8.05
2022-09-07T13:37:05.805Z,5.93
2022-09-07T13:39:42.350Z,4.55
2022-09-07T13:42:16.717Z,6.60
2022-09-07T13:44:53.751Z,11.02
2022-09-07T13:47:30.776Z,7.32
2022-09-07T13:50:19.321Z,8.75
2022-09-07T13:53:04.855Z,8.20
2022-09-07T13:55:38.509Z,6.60
2022-09-07T13:58:34.786Z,9.27
2022-09-07T14:01:08.235Z,12.13
2022-09-07T14:03:43.556Z,4.75
2022-09-07T14:06:22.437Z,10.57
2022-09-07T14:08:51.687Z,8.30
2022-09-07T14:11:19.547Z,7.43
2022-09-07T14:13:46.346Z,8.30
2022-09-07T14:16:13.294Z,5.60
2022-09-07T14:18:40.295Z,6.90
2022-09-07T14:21:09.543Z,6.53
2022-09-07T14:23:36.760Z,7.63
2022-09-07T14:26:16.725Z,7.28
2022-09-07T14:28:46.017Z,10.00
2022-09-07T14:31:15.276Z,6.03
2022-09-07T14:33:54.238Z,8.10
2022-09-07T14:36:48.240Z,6.70
2022-09-07T14:39:17.244Z,6.88
2022-09-07T14:41:44.519Z,10.15
2022-09-07T14:44:29.860Z,5.50
2022-09-07T14:46:59.146Z,5.80
2022-09-07T14:49:25.889Z,6.53
2022-09-07T14:51:54.602Z,6.97
2022-09-07T14:54:32.448Z,6.95
2022-09-07T14:57:24.171Z,9.10
2022-09-07T14:59:53.632Z,5.95
2022-09-07T15:02:28.545Z,7.57
2022-09-07T15:05:14.347Z,8.45
2022-09-07T15:07:45.866Z,5.13
2022-09-07T15:10:14.274Z,4.82
2022-09-07T15:12:43.091Z,6.15
2022-09-07T15:18:04.514Z,5.75
2022-09-07T15:20:36.828Z,5.78
2022-09-07T15:23:13.308Z,6.68
2022-09-07T15:25:44.341Z,6.95
2022-09-07T15:34:04.988Z,6.65
2022-09-07T15:36:32.261Z,9.68
2022-09-07T15:38:59.899Z,6.03
2022-09-07T15:41:27.809Z,5.60
2022-09-07T15:43:55.506Z,5.03
2022-09-07T15:48:54.388Z,7.75
2022-09-07T15:54:13.832Z,8.73
2022-09-07T15:56:42.676Z,5.63
2022-09-07T15:59:10.319Z,6.47
2022-09-07T16:01:54.719Z,7.13
2022-09-07T16:04:24.090Z,4.95
2022-09-07T16:06:51.085Z,8.98
2022-09-07T16:09:21.632Z,3.83
2022-09-07T16:11:50.123Z,8.45
2022-09-07T16:14:17.723Z,7.88
2022-09-07T16:19:34.974Z,4.90
2022-09-07T16:22:03.092Z,7.63
2022-09-07T16:24:30.040Z,7.45
2022-09-07T16:26:56.809Z,6.18
2022-09-07T16:29:23.468Z,6.82
2022-09-07T16:34:37.250Z,5.63
2022-09-07T16:37:04.091Z,5.15
2022-09-07T16:39:31.961Z,4.63
2022-09-07T16:42:00.033Z,6.40
2022-09-07T16:44:26.862Z,6.67
2022-09-07T16:46:54.974Z,7.93
2022-09-07T16:49:21.991Z,6.57
2022-09-07T16:51:49.820Z,6.95
2022-09-07T16:54:17.598Z,6.53
2022-09-07T16:56:44.319Z,7.88
2022-09-07T16:59:16.544Z,9.70
2022-09-07T17:01:43.281Z,10.80
2022-09-07T17:04:11.430Z,8.00
2022-09-07T17:06:39.819Z,4.53
2022-09-07T17:09:07.245Z,8.63
2022-09-07T17:11:35.420Z,4.90
2022-09-07T17:14:02.453Z,4.10
2022-09-07T17:16:37.392Z,8.05
2022-09-07T17:21:53.562Z,6.40
2022-09-07T17:24:20.593Z,6.75
2022-09-07T17:26:48.440Z,5.30
2022-09-07T17:29:15.128Z,5.60
2022-09-07T17:34:30.188Z,7.07
2022-09-07T17:36:57.138Z,4.68
2022-09-07T17:39:23.887Z,8.27
2022-09-07T17:41:54.441Z,6.25
2022-09-07T17:44:22.469Z,9.02
2022-09-07T17:46:49.306Z,7.07
2022-09-07T17:49:19.097Z,5.80
2022-09-07T17:51:46.022Z,5.82
2022-09-07T17:54:17.874Z,7.70
2022-09-07T17:56:45.280Z,5.78
2022-09-07T18:01:58.891Z,9.68
2022-09-07T18:04:25.844Z,9.95
2022-09-07T18:06:54.131Z,9.07
2022-09-07T18:09:22.133Z,8.93
2022-09-07T18:11:50.110Z,5.93
2022-09-07T18:14:18.043Z,6.07
2022-09-07T18:16:46.429Z,13.75
2022-09-07T18:19:13.491Z,6.38
2022-09-07T18:21:42.902Z,7.60
2022-09-07T18:24:18.512Z,10.15
2022-09-07T18:26:50.182Z,8.80
2022-09-07T18:29:28.706Z,9.50
2022-09-07T18:31:57.186Z,8.55
2022-09-07T18:34:24.093Z,6.80
2022-09-07T18:36:51.217Z,7.55
2022-09-07T18:39:18.161Z,10.13
